This is the latest recevied weather packets stored in our database for station/object EA4BCR. If no packets are shown the sender has not sent any weather packets the latest 10 day(s).
| Time | Temp. | Humidity | Pressure | Rain* | Wind** | Luminosity | Snow |
|---|---|---|---|---|---|---|---|
| 1777894852 | 20.56° C | 40% | 1009.7 hPa | - | - | - | - |
| 1777894253 | 20° C | 45% | 1009.9 hPa | - | - | - | - |
| 1777893653 | 19.44° C | 55% | 1010 hPa | - | - | - | - |
| 1777893053 | 18.89° C | 50% | 1010.4 hPa | - | - | - | - |
| 1777892453 | 17.22° C | 60% | 1011.2 hPa | - | - | - | - |
| 1777891852 | 17.22° C | 63% | 1011.2 hPa | - | - | - | - |
| 1777891252 | 17.78° C | 56% | 1011 hPa | - | - | - | - |
| 1777890652 | 17.22° C | 60% | 1011.2 hPa | - | - | - | - |
| 1777890052 | 17.78° C | 64% | 1011.2 hPa | - | - | - | - |
| 1777889452 | 17.22° C | 57% | 1011.3 hPa | - | - | - | - |
| 1777888852 | 17.22° C | 61% | 1011.6 hPa | - | - | - | - |
| 1777888253 | 17.78° C | 59% | 1011.2 hPa | - | - | - | - |
| 1777887652 | 18.33° C | 60% | 1011.1 hPa | - | - | - | - |
| 1777887052 | 17.22° C | 69% | 1011.6 hPa | - | - | - | - |
| 1777886452 | 17.78° C | 63% | 1011.3 hPa | - | - | - | - |
| 1777885852 | 17.78° C | 65% | 1011.2 hPa | - | - | - | - |
| 1777885252 | 17.78° C | 67% | 1011.3 hPa | - | - | - | - |
| 1777884652 | 17.78° C | 67% | 1011.3 hPa | - | - | - | - |
| 1777884053 | 17.22° C | 70% | 1011.5 hPa | - | - | - | - |
| 1777883452 | 16.67° C | 88% | 1011.8 hPa | - | - | - | - |
| 1777882852 | 17.78° C | 84% | 1011.4 hPa | - | - | - | - |
| 1777882252 | 16.67° C | 91% | 1011.9 hPa | - | - | - | - |
| 1777881652 | 15° C | 10% | - | - | - | - | - |
| 1777881052 | 16.67° C | 83% | 1011.9 hPa | - | - | - | - |
| 1777880452 | 16.11° C | 95% | 1012.1 hPa | - | - | - | - |
* Rain since midnight (hover to see other rain measurements)
** Current wind speed in m/s (hover to see current wind gust speed)